Sault Ste Marie, MI

11:39 PM EST on February 26, 2017 (GMT -0500)
Sault Ste Marie Municipal / Sanderson Field | | Change Station

Elev 715 ft 46.48 °N, 84.37 °W | Updated 44 minutes ago

Mostly Cloudy
Mostly Cloudy
26 °F
Feels Like 12 °F
N
20
Wind Variable Wind from West
Gusts 29 mph

Today
High -- | Low -- °F
--% Chance of Precip.
Yesterday
High -- | Low -- °F
Precip. -- in
Pressure 29.87 in
Visibility 9.0 miles
Clouds Mostly Cloudy 3600 ft
Windchill 12 °F
Dew Point 14 °F
Humidity 60%
Rainfall 0.11 in
Snow Depth Not available.
7:21 AM 6:19 PM
New Moon, 0% visible
METAR KANJ 270355Z AUTO 27017G25KT 9SM UP BKN036 M03/M10 A2984 RMK AO2 PK WND 29029/0328 UPB0259SNE0259 SLP114 P0000 T10331100
Pressure 29.87 in
Visibility 9.0 miles
Clouds Mostly Cloudy 3600 ft
Windchill 12 °F
Dew Point 14 °F
Humidity 60%
Rainfall 0.11 in
Snow Depth Not available.
7:21 AM 6:19 PM
New Moon, 0% visible
METAR KANJ 270355Z AUTO 27017G25KT 9SM UP BKN036 M03/M10 A2984 RMK AO2 PK WND 29029/0328 UPB0259SNE0259 SLP114 P0000 T10331100

Get Your Daily Forecast Email!

Thanks for signing up!

Be on the lookout for a verification email in your inbox.

You'll start receiving the daily forecast at 8 AM.

×

10-Day Weather Forecast

Almanac

Astronomy

Feb. 26, 2017 Rise Set
Actual Time
Civil Twilight
Nautical Twilight
Astronomical Twilight
Moon
Length of Visible Light
Length of Day
Tomorrow will be .
, % of the Moon is Illuminated

Today's Extremes

State Highs State Lows

Community

WunderPhotos

Upload Photos

1,962,540 photos uploaded!

WunderBlog® & News

Nearby

Air Quality

  Air Quality AQ Index Pollutant
Not available.

Snow Depth

Station Depth Elevation

Earthquake Activity

City Distance Mag. Time & Date
Minimum magnitude displayed is 2.5.

Coastal Water Temperatures

Place Temperature

Stations

Nearby Weather Stations

Station Location Temp. Windchill Dew Point Humidity Wind Precip. Elev Updated Type
                   

Watches & Warnings

There are currently no watches in effect.